sensor_id;sensor_type;location;lat;lon;timestamp;temperature;humidity
9466;DHT22;4771;48.726;9.006;2023-07-16T00:01:47;20.30;99.90
9466;DHT22;4771;48.726;9.006;2023-07-16T00:04:15;20.20;99.90
9466;DHT22;4771;48.726;9.006;2023-07-16T00:06:42;20.20;99.90
9466;DHT22;4771;48.726;9.006;2023-07-16T00:09:09;20.10;99.90
9466;DHT22;4771;48.726;9.006;2023-07-16T00:11:36;20.00;99.90
9466;DHT22;4771;48.726;9.006;2023-07-16T00:14:03;20.00;99.90
9466;DHT22;4771;48.726;9.006;2023-07-16T00:16:30;20.00;99.90
9466;DHT22;4771;48.726;9.006;2023-07-16T00:18:57;20.10;99.90
9466;DHT22;4771;48.726;9.006;2023-07-16T00:21:26;20.10;99.90
9466;DHT22;4771;48.726;9.006;2023-07-16T00:23:52;20.10;99.90
9466;DHT22;4771;48.726;9.006;2023-07-16T00:26:21;20.10;99.90
9466;DHT22;4771;48.726;9.006;2023-07-16T00:28:48;20.10;99.90
9466;DHT22;4771;48.726;9.006;2023-07-16T00:31:15;20.10;99.90
9466;DHT22;4771;48.726;9.006;2023-07-16T00:33:41;20.10;99.90
9466;DHT22;4771;48.726;9.006;2023-07-16T00:36:08;20.10;99.90
9466;DHT22;4771;48.726;9.006;2023-07-16T00:38:36;20.10;99.90
9466;DHT22;4771;48.726;9.006;2023-07-16T00:41:05;20.10;99.90
9466;DHT22;4771;48.726;9.006;2023-07-16T00:43:32;20.20;99.90
9466;DHT22;4771;48.726;9.006;2023-07-16T00:45:59;20.20;99.90
9466;DHT22;4771;48.726;9.006;2023-07-16T00:48:26;20.10;99.90
9466;DHT22;4771;48.726;9.006;2023-07-16T00:50:53;20.10;99.90
9466;DHT22;4771;48.726;9.006;2023-07-16T00:53:21;20.10;99.90
9466;DHT22;4771;48.726;9.006;2023-07-16T00:55:49;20.10;99.90
9466;DHT22;4771;48.726;9.006;2023-07-16T00:58:16;20.10;99.90
9466;DHT22;4771;48.726;9.006;2023-07-16T01:00:43;20.10;99.90
9466;DHT22;4771;48.726;9.006;2023-07-16T01:03:13;20.00;99.90
9466;DHT22;4771;48.726;9.006;2023-07-16T01:05:45;20.00;99.90
9466;DHT22;4771;48.726;9.006;2023-07-16T01:08:15;20.00;99.90
9466;DHT22;4771;48.726;9.006;2023-07-16T01:10:44;20.00;99.90
9466;DHT22;4771;48.726;9.006;2023-07-16T01:13:13;20.00;99.90
9466;DHT22;4771;48.726;9.006;2023-07-16T01:15:40;20.00;99.90
9466;DHT22;4771;48.726;9.006;2023-07-16T01:18:07;19.90;99.90
9466;DHT22;4771;48.726;9.006;2023-07-16T01:20:34;19.80;99.90
9466;DHT22;4771;48.726;9.006;2023-07-16T01:23:21;19.80;99.90
9466;DHT22;4771;48.726;9.006;2023-07-16T01:26:18;19.80;99.90
9466;DHT22;4771;48.726;9.006;2023-07-16T01:31:49;19.70;99.90
9466;DHT22;4771;48.726;9.006;2023-07-16T01:34:17;19.60;99.90
9466;DHT22;4771;48.726;9.006;2023-07-16T01:36:45;19.60;99.90
9466;DHT22;4771;48.726;9.006;2023-07-16T01:39:13;19.50;99.90
9466;DHT22;4771;48.726;9.006;2023-07-16T01:41:40;19.40;99.90
9466;DHT22;4771;48.726;9.006;2023-07-16T01:44:07;19.40;99.90
9466;DHT22;4771;48.726;9.006;2023-07-16T01:46:34;19.40;99.90
9466;DHT22;4771;48.726;9.006;2023-07-16T01:49:02;19.30;99.90
9466;DHT22;4771;48.726;9.006;2023-07-16T01:51:30;19.30;99.90
9466;DHT22;4771;48.726;9.006;2023-07-16T01:53:57;19.30;99.90
9466;DHT22;4771;48.726;9.006;2023-07-16T01:56:23;19.20;99.90
9466;DHT22;4771;48.726;9.006;2023-07-16T01:58:50;19.20;99.90
9466;DHT22;4771;48.726;9.006;2023-07-16T02:01:17;19.20;99.90
9466;DHT22;4771;48.726;9.006;2023-07-16T02:03:44;19.20;99.90
9466;DHT22;4771;48.726;9.006;2023-07-16T02:06:12;19.20;99.90
9466;DHT22;4771;48.726;9.006;2023-07-16T02:08:40;19.20;99.90
9466;DHT22;4771;48.726;9.006;2023-07-16T02:11:07;19.20;99.90
9466;DHT22;4771;48.726;9.006;2023-07-16T02:13:33;19.00;99.90
9466;DHT22;4771;48.726;9.006;2023-07-16T02:16:00;19.00;99.90
9466;DHT22;4771;48.726;9.006;2023-07-16T02:18:27;18.90;99.90
9466;DHT22;4771;48.726;9.006;2023-07-16T02:20:54;18.80;99.90
9466;DHT22;4771;48.726;9.006;2023-07-16T02:23:22;18.80;99.90
9466;DHT22;4771;48.726;9.006;2023-07-16T02:25:49;18.70;99.90
9466;DHT22;4771;48.726;9.006;2023-07-16T02:28:16;18.70;99.90
9466;DHT22;4771;48.726;9.006;2023-07-16T02:30:43;18.60;99.90
9466;DHT22;4771;48.726;9.006;2023-07-16T02:33:10;18.50;99.90
9466;DHT22;4771;48.726;9.006;2023-07-16T02:35:36;18.50;99.90
9466;DHT22;4771;48.726;9.006;2023-07-16T02:38:03;18.50;99.90
9466;DHT22;4771;48.726;9.006;2023-07-16T02:40:31;18.40;99.90
9466;DHT22;4771;48.726;9.006;2023-07-16T02:42:58;18.20;99.90
9466;DHT22;4771;48.726;9.006;2023-07-16T02:45:25;18.20;99.90
9466;DHT22;4771;48.726;9.006;2023-07-16T02:47:52;18.30;99.90
9466;DHT22;4771;48.726;9.006;2023-07-16T02:50:19;18.20;99.90
9466;DHT22;4771;48.726;9.006;2023-07-16T02:52:46;18.30;99.90
9466;DHT22;4771;48.726;9.006;2023-07-16T02:55:12;18.30;99.90
9466;DHT22;4771;48.726;9.006;2023-07-16T02:57:41;18.20;99.90
9466;DHT22;4771;48.726;9.006;2023-07-16T03:00:09;18.20;99.90
9466;DHT22;4771;48.726;9.006;2023-07-16T03:02:35;18.10;99.90
9466;DHT22;4771;48.726;9.006;2023-07-16T03:05:03;18.20;99.90
9466;DHT22;4771;48.726;9.006;2023-07-16T03:07:29;18.10;99.90
9466;DHT22;4771;48.726;9.006;2023-07-16T03:09:56;18.20;99.90
9466;DHT22;4771;48.726;9.006;2023-07-16T03:12:23;18.10;99.90
9466;DHT22;4771;48.726;9.006;2023-07-16T03:14:51;18.10;99.90
9466;DHT22;4771;48.726;9.006;2023-07-16T03:17:19;18.10;99.90
9466;DHT22;4771;48.726;9.006;2023-07-16T03:19:47;18.10;99.90
9466;DHT22;4771;48.726;9.006;2023-07-16T03:22:14;18.10;99.90
9466;DHT22;4771;48.726;9.006;2023-07-16T03:24:40;18.50;99.90
9466;DHT22;4771;48.726;9.006;2023-07-16T03:27:07;18.20;99.90
9466;DHT22;4771;48.726;9.006;2023-07-16T03:29:34;18.20;99.90
9466;DHT22;4771;48.726;9.006;2023-07-16T03:32:03;18.20;99.90
9466;DHT22;4771;48.726;9.006;2023-07-16T03:34:30;18.20;99.90
9466;DHT22;4771;48.726;9.006;2023-07-16T03:36:57;18.30;99.90
9466;DHT22;4771;48.726;9.006;2023-07-16T03:39:23;18.20;99.90
9466;DHT22;4771;48.726;9.006;2023-07-16T03:41:50;18.20;99.90
9466;DHT22;4771;48.726;9.006;2023-07-16T03:44:17;18.30;99.90
9466;DHT22;4771;48.726;9.006;2023-07-16T03:46:44;18.30;99.90
9466;DHT22;4771;48.726;9.006;2023-07-16T03:49:12;18.30;99.90
9466;DHT22;4771;48.726;9.006;2023-07-16T03:51:39;18.30;99.90
9466;DHT22;4771;48.726;9.006;2023-07-16T03:54:06;18.20;99.90
9466;DHT22;4771;48.726;9.006;2023-07-16T03:56:33;18.30;99.90
9466;DHT22;4771;48.726;9.006;2023-07-16T03:59:00;18.30;99.90
9466;DHT22;4771;48.726;9.006;2023-07-16T04:01:27;18.30;99.90
9466;DHT22;4771;48.726;9.006;2023-07-16T04:03:54;18.30;99.90
9466;DHT22;4771;48.726;9.006;2023-07-16T04:06:22;18.30;99.90
9466;DHT22;4771;48.726;9.006;2023-07-16T04:08:49;18.30;99.90
9466;DHT22;4771;48.726;9.006;2023-07-16T04:11:15;18.30;99.90
9466;DHT22;4771;48.726;9.006;2023-07-16T04:13:42;18.30;99.90
9466;DHT22;4771;48.726;9.006;2023-07-16T04:16:09;18.30;99.90
9466;DHT22;4771;48.726;9.006;2023-07-16T04:18:36;18.30;99.90
9466;DHT22;4771;48.726;9.006;2023-07-16T04:21:03;18.30;99.90
9466;DHT22;4771;48.726;9.006;2023-07-16T04:23:31;18.30;99.90
9466;DHT22;4771;48.726;9.006;2023-07-16T04:25:58;18.30;99.90
9466;DHT22;4771;48.726;9.006;2023-07-16T04:28:25;18.30;99.90
9466;DHT22;4771;48.726;9.006;2023-07-16T04:30:52;18.30;99.90
9466;DHT22;4771;48.726;9.006;2023-07-16T04:33:18;18.30;99.90
9466;DHT22;4771;48.726;9.006;2023-07-16T04:35:45;18.30;99.90
9466;DHT22;4771;48.726;9.006;2023-07-16T04:38:12;18.30;99.90
9466;DHT22;4771;48.726;9.006;2023-07-16T04:40:41;18.30;99.90
9466;DHT22;4771;48.726;9.006;2023-07-16T04:43:08;18.30;99.90
9466;DHT22;4771;48.726;9.006;2023-07-16T04:45:35;18.30;99.90
9466;DHT22;4771;48.726;9.006;2023-07-16T04:48:02;18.30;99.90
9466;DHT22;4771;48.726;9.006;2023-07-16T04:50:29;18.40;99.90
9466;DHT22;4771;48.726;9.006;2023-07-16T04:52:56;18.40;99.90
9466;DHT22;4771;48.726;9.006;2023-07-16T04:55:23;18.40;99.90
9466;DHT22;4771;48.726;9.006;2023-07-16T04:57:51;18.40;99.90
9466;DHT22;4771;48.726;9.006;2023-07-16T05:00:19;18.40;99.90
9466;DHT22;4771;48.726;9.006;2023-07-16T05:02:46;18.40;99.90
9466;DHT22;4771;48.726;9.006;2023-07-16T05:05:12;18.40;99.90
9466;DHT22;4771;48.726;9.006;2023-07-16T05:07:39;18.40;99.90
9466;DHT22;4771;48.726;9.006;2023-07-16T05:10:07;18.40;99.90
9466;DHT22;4771;48.726;9.006;2023-07-16T05:12:34;18.40;99.90
9466;DHT22;4771;48.726;9.006;2023-07-16T05:15:03;18.50;99.90
9466;DHT22;4771;48.726;9.006;2023-07-16T05:17:30;18.50;99.90
9466;DHT22;4771;48.726;9.006;2023-07-16T05:19:56;18.50;99.90
9466;DHT22;4771;48.726;9.006;2023-07-16T05:22:23;18.50;99.90
9466;DHT22;4771;48.726;9.006;2023-07-16T05:24:50;18.50;99.90
9466;DHT22;4771;48.726;9.006;2023-07-16T05:27:17;18.50;99.90
9466;DHT22;4771;48.726;9.006;2023-07-16T05:29:44;18.50;99.90
9466;DHT22;4771;48.726;9.006;2023-07-16T05:32:12;18.60;99.90
9466;DHT22;4771;48.726;9.006;2023-07-16T05:34:39;18.60;99.90
9466;DHT22;4771;48.726;9.006;2023-07-16T05:37:06;18.60;99.90
9466;DHT22;4771;48.726;9.006;2023-07-16T05:39:33;18.60;99.90
9466;DHT22;4771;48.726;9.006;2023-07-16T05:42:00;18.60;99.90
9466;DHT22;4771;48.726;9.006;2023-07-16T05:44:27;18.70;99.90
9466;DHT22;4771;48.726;9.006;2023-07-16T05:46:54;18.70;99.90
9466;DHT22;4771;48.726;9.006;2023-07-16T05:49:23;18.70;99.90
9466;DHT22;4771;48.726;9.006;2023-07-16T05:51:51;18.80;99.90
9466;DHT22;4771;48.726;9.006;2023-07-16T05:54:18;18.80;99.90
9466;DHT22;4771;48.726;9.006;2023-07-16T05:56:45;18.80;99.90
9466;DHT22;4771;48.726;9.006;2023-07-16T05:59:12;18.80;99.90
9466;DHT22;4771;48.726;9.006;2023-07-16T06:01:39;18.80;99.90
9466;DHT22;4771;48.726;9.006;2023-07-16T06:04:06;18.80;99.90
9466;DHT22;4771;48.726;9.006;2023-07-16T06:06:34;18.80;99.90
9466;DHT22;4771;48.726;9.006;2023-07-16T06:09:01;18.80;99.90
9466;DHT22;4771;48.726;9.006;2023-07-16T06:11:28;18.80;99.90
9466;DHT22;4771;48.726;9.006;2023-07-16T06:13:55;18.80;99.90
9466;DHT22;4771;48.726;9.006;2023-07-16T06:16:21;18.80;99.90
9466;DHT22;4771;48.726;9.006;2023-07-16T06:18:48;18.80;99.90
9466;DHT22;4771;48.726;9.006;2023-07-16T06:21:15;18.80;99.90
9466;DHT22;4771;48.726;9.006;2023-07-16T06:23:44;18.80;99.90
9466;DHT22;4771;48.726;9.006;2023-07-16T06:26:10;18.80;99.90
9466;DHT22;4771;48.726;9.006;2023-07-16T06:28:37;18.80;99.90
9466;DHT22;4771;48.726;9.006;2023-07-16T06:31:04;18.80;99.90
9466;DHT22;4771;48.726;9.006;2023-07-16T06:33:31;18.80;99.90
9466;DHT22;4771;48.726;9.006;2023-07-16T06:35:58;18.80;99.90
9466;DHT22;4771;48.726;9.006;2023-07-16T06:38:25;18.80;99.90
9466;DHT22;4771;48.726;9.006;2023-07-16T06:40:53;18.80;99.90
9466;DHT22;4771;48.726;9.006;2023-07-16T06:43:20;18.80;99.90
9466;DHT22;4771;48.726;9.006;2023-07-16T06:45:49;18.90;99.90
9466;DHT22;4771;48.726;9.006;2023-07-16T06:48:15;18.90;99.90
9466;DHT22;4771;48.726;9.006;2023-07-16T06:50:42;18.90;99.90
9466;DHT22;4771;48.726;9.006;2023-07-16T06:53:09;19.00;99.90
9466;DHT22;4771;48.726;9.006;2023-07-16T06:55:36;18.90;99.90
9466;DHT22;4771;48.726;9.006;2023-07-16T06:58:04;19.00;99.90
9466;DHT22;4771;48.726;9.006;2023-07-16T07:00:31;19.00;99.90
9466;DHT22;4771;48.726;9.006;2023-07-16T07:02:58;19.00;99.90
9466;DHT22;4771;48.726;9.006;2023-07-16T07:05:25;18.90;99.90
9466;DHT22;4771;48.726;9.006;2023-07-16T07:07:52;18.90;99.90
9466;DHT22;4771;48.726;9.006;2023-07-16T07:10:19;18.90;99.90
9466;DHT22;4771;48.726;9.006;2023-07-16T07:12:46;19.00;99.90
9466;DHT22;4771;48.726;9.006;2023-07-16T07:15:14;19.00;99.90
9466;DHT22;4771;48.726;9.006;2023-07-16T07:17:41;19.00;99.90
9466;DHT22;4771;48.726;9.006;2023-07-16T07:20:09;19.00;99.90
9466;DHT22;4771;48.726;9.006;2023-07-16T07:22:36;19.00;99.90
9466;DHT22;4771;48.726;9.006;2023-07-16T07:25:03;19.10;99.90
9466;DHT22;4771;48.726;9.006;2023-07-16T07:27:30;19.10;99.90
9466;DHT22;4771;48.726;9.006;2023-07-16T07:29:57;19.10;99.90
9466;DHT22;4771;48.726;9.006;2023-07-16T07:32:25;19.10;99.90
9466;DHT22;4771;48.726;9.006;2023-07-16T07:34:52;18.90;99.90
9466;DHT22;4771;48.726;9.006;2023-07-16T07:37:18;18.80;99.90
9466;DHT22;4771;48.726;9.006;2023-07-16T07:39:45;18.80;99.90
9466;DHT22;4771;48.726;9.006;2023-07-16T07:42:13;18.80;99.90
9466;DHT22;4771;48.726;9.006;2023-07-16T07:44:40;18.90;99.90
9466;DHT22;4771;48.726;9.006;2023-07-16T07:47:07;18.90;99.90
9466;DHT22;4771;48.726;9.006;2023-07-16T07:49:36;18.90;99.90
9466;DHT22;4771;48.726;9.006;2023-07-16T07:52:03;18.90;99.90
9466;DHT22;4771;48.726;9.006;2023-07-16T07:54:31;19.10;99.90
9466;DHT22;4771;48.726;9.006;2023-07-16T07:57:00;19.20;99.90
9466;DHT22;4771;48.726;9.006;2023-07-16T07:59:28;19.20;99.90
9466;DHT22;4771;48.726;9.006;2023-07-16T08:01:55;19.40;99.90
9466;DHT22;4771;48.726;9.006;2023-07-16T08:04:21;19.40;99.90
9466;DHT22;4771;48.726;9.006;2023-07-16T08:06:51;19.30;99.90
9466;DHT22;4771;48.726;9.006;2023-07-16T08:09:17;19.20;99.90
9466;DHT22;4771;48.726;9.006;2023-07-16T08:11:44;19.20;99.90
9466;DHT22;4771;48.726;9.006;2023-07-16T08:14:11;19.30;99.90
9466;DHT22;4771;48.726;9.006;2023-07-16T08:16:38;19.30;99.90
9466;DHT22;4771;48.726;9.006;2023-07-16T08:19:05;19.40;99.90
9466;DHT22;4771;48.726;9.006;2023-07-16T08:21:32;19.40;99.90
9466;DHT22;4771;48.726;9.006;2023-07-16T08:24:00;19.40;99.90
9466;DHT22;4771;48.726;9.006;2023-07-16T08:26:27;19.50;99.90
9466;DHT22;4771;48.726;9.006;2023-07-16T08:28:54;19.50;99.90
9466;DHT22;4771;48.726;9.006;2023-07-16T08:31:21;19.50;99.90
9466;DHT22;4771;48.726;9.006;2023-07-16T08:33:48;19.60;99.90
9466;DHT22;4771;48.726;9.006;2023-07-16T08:36:14;19.70;99.90
9466;DHT22;4771;48.726;9.006;2023-07-16T08:38:41;19.80;99.90
9466;DHT22;4771;48.726;9.006;2023-07-16T08:41:10;19.90;99.90
9466;DHT22;4771;48.726;9.006;2023-07-16T08:43:37;19.90;99.90
9466;DHT22;4771;48.726;9.006;2023-07-16T08:46:05;19.90;99.90
9466;DHT22;4771;48.726;9.006;2023-07-16T08:48:33;20.00;99.90
9466;DHT22;4771;48.726;9.006;2023-07-16T08:51:02;20.00;99.90
9466;DHT22;4771;48.726;9.006;2023-07-16T08:53:30;20.00;99.90
9466;DHT22;4771;48.726;9.006;2023-07-16T08:55:57;20.10;99.90
9466;DHT22;4771;48.726;9.006;2023-07-16T08:58:25;20.20;99.90
9466;DHT22;4771;48.726;9.006;2023-07-16T09:00:52;20.30;99.90
9466;DHT22;4771;48.726;9.006;2023-07-16T09:03:19;20.20;99.90
9466;DHT22;4771;48.726;9.006;2023-07-16T09:05:46;20.30;99.90
9466;DHT22;4771;48.726;9.006;2023-07-16T09:08:14;20.30;99.90
9466;DHT22;4771;48.726;9.006;2023-07-16T09:10:41;20.30;99.90
9466;DHT22;4771;48.726;9.006;2023-07-16T09:13:08;20.40;99.90
9466;DHT22;4771;48.726;9.006;2023-07-16T09:15:36;20.50;99.90
9466;DHT22;4771;48.726;9.006;2023-07-16T09:18:04;20.30;99.90
9466;DHT22;4771;48.726;9.006;2023-07-16T09:20:31;20.00;99.90
9466;DHT22;4771;48.726;9.006;2023-07-16T09:22:58;20.00;99.90
9466;DHT22;4771;48.726;9.006;2023-07-16T09:25:28;20.10;99.90
9466;DHT22;4771;48.726;9.006;2023-07-16T09:27:55;20.20;99.90
9466;DHT22;4771;48.726;9.006;2023-07-16T09:30:22;20.20;99.90
9466;DHT22;4771;48.726;9.006;2023-07-16T09:32:51;20.30;99.90
9466;DHT22;4771;48.726;9.006;2023-07-16T09:35:17;20.40;99.90
9466;DHT22;4771;48.726;9.006;2023-07-16T09:37:44;20.40;99.90
9466;DHT22;4771;48.726;9.006;2023-07-16T09:40:12;20.50;99.90
9466;DHT22;4771;48.726;9.006;2023-07-16T09:42:40;20.60;99.90
9466;DHT22;4771;48.726;9.006;2023-07-16T09:45:07;20.60;99.90
9466;DHT22;4771;48.726;9.006;2023-07-16T09:47:35;20.80;99.90
9466;DHT22;4771;48.726;9.006;2023-07-16T09:50:03;20.90;99.90
9466;DHT22;4771;48.726;9.006;2023-07-16T09:52:32;21.00;99.90
9466;DHT22;4771;48.726;9.006;2023-07-16T09:55:01;21.00;99.90
9466;DHT22;4771;48.726;9.006;2023-07-16T09:57:32;21.00;99.90
9466;DHT22;4771;48.726;9.006;2023-07-16T10:00:01;20.90;99.90
9466;DHT22;4771;48.726;9.006;2023-07-16T10:02:30;20.90;99.90
9466;DHT22;4771;48.726;9.006;2023-07-16T10:04:58;21.00;99.90
9466;DHT22;4771;48.726;9.006;2023-07-16T10:07:26;21.10;99.90
9466;DHT22;4771;48.726;9.006;2023-07-16T10:09:54;21.10;99.90
9466;DHT22;4771;48.726;9.006;2023-07-16T10:12:23;21.10;99.90
9466;DHT22;4771;48.726;9.006;2023-07-16T10:14:51;21.20;99.90
9466;DHT22;4771;48.726;9.006;2023-07-16T10:17:19;21.20;99.90
9466;DHT22;4771;48.726;9.006;2023-07-16T10:19:48;21.20;99.90
9466;DHT22;4771;48.726;9.006;2023-07-16T10:22:15;21.20;99.90
9466;DHT22;4771;48.726;9.006;2023-07-16T10:24:43;21.20;99.90
9466;DHT22;4771;48.726;9.006;2023-07-16T10:27:13;21.30;99.90
9466;DHT22;4771;48.726;9.006;2023-07-16T10:29:40;21.30;99.90
9466;DHT22;4771;48.726;9.006;2023-07-16T10:32:07;21.40;99.90
9466;DHT22;4771;48.726;9.006;2023-07-16T10:34:35;21.40;99.90
9466;DHT22;4771;48.726;9.006;2023-07-16T10:37:02;21.50;99.90
9466;DHT22;4771;48.726;9.006;2023-07-16T10:39:29;21.60;99.90
9466;DHT22;4771;48.726;9.006;2023-07-16T10:41:58;21.70;99.90
9466;DHT22;4771;48.726;9.006;2023-07-16T10:44:26;21.80;99.90
9466;DHT22;4771;48.726;9.006;2023-07-16T10:46:53;21.90;99.90
9466;DHT22;4771;48.726;9.006;2023-07-16T10:49:27;22.10;99.90
9466;DHT22;4771;48.726;9.006;2023-07-16T10:51:54;22.20;99.90
9466;DHT22;4771;48.726;9.006;2023-07-16T10:54:21;22.30;99.90
9466;DHT22;4771;48.726;9.006;2023-07-16T10:56:50;22.30;99.90
9466;DHT22;4771;48.726;9.006;2023-07-16T10:59:19;22.40;99.90
9466;DHT22;4771;48.726;9.006;2023-07-16T11:01:45;22.50;99.90
9466;DHT22;4771;48.726;9.006;2023-07-16T11:04:12;22.50;99.90
9466;DHT22;4771;48.726;9.006;2023-07-16T11:06:39;22.60;99.90
9466;DHT22;4771;48.726;9.006;2023-07-16T11:09:07;22.70;99.90
9466;DHT22;4771;48.726;9.006;2023-07-16T11:11:34;22.80;99.90
9466;DHT22;4771;48.726;9.006;2023-07-16T11:14:04;22.80;99.90
9466;DHT22;4771;48.726;9.006;2023-07-16T11:16:34;22.90;99.90
9466;DHT22;4771;48.726;9.006;2023-07-16T11:19:03;23.00;99.90
9466;DHT22;4771;48.726;9.006;2023-07-16T11:21:31;23.00;99.90
9466;DHT22;4771;48.726;9.006;2023-07-16T11:24:08;23.10;99.90
9466;DHT22;4771;48.726;9.006;2023-07-16T11:26:35;23.10;99.90
9466;DHT22;4771;48.726;9.006;2023-07-16T11:29:12;23.10;99.90
9466;DHT22;4771;48.726;9.006;2023-07-16T11:31:41;23.10;99.90
9466;DHT22;4771;48.726;9.006;2023-07-16T11:34:12;23.10;99.90
9466;DHT22;4771;48.726;9.006;2023-07-16T11:36:39;23.20;99.90
9466;DHT22;4771;48.726;9.006;2023-07-16T11:39:06;23.30;99.90
9466;DHT22;4771;48.726;9.006;2023-07-16T11:41:32;23.30;99.90
9466;DHT22;4771;48.726;9.006;2023-07-16T11:44:00;23.40;99.90
9466;DHT22;4771;48.726;9.006;2023-07-16T11:46:31;23.50;99.90
9466;DHT22;4771;48.726;9.006;2023-07-16T11:49:00;23.60;97.30
9466;DHT22;4771;48.726;9.006;2023-07-16T11:51:27;23.60;96.80
9466;DHT22;4771;48.726;9.006;2023-07-16T11:53:56;23.60;98.90
9466;DHT22;4771;48.726;9.006;2023-07-16T11:56:23;23.60;95.50
9466;DHT22;4771;48.726;9.006;2023-07-16T11:58:50;23.60;95.70
9466;DHT22;4771;48.726;9.006;2023-07-16T12:01:17;23.60;98.70
9466;DHT22;4771;48.726;9.006;2023-07-16T12:03:44;23.60;96.30
9466;DHT22;4771;48.726;9.006;2023-07-16T12:06:12;23.70;98.30
9466;DHT22;4771;48.726;9.006;2023-07-16T12:08:39;23.70;96.00
9466;DHT22;4771;48.726;9.006;2023-07-16T12:11:06;23.80;96.90
9466;DHT22;4771;48.726;9.006;2023-07-16T12:13:32;23.80;98.20
9466;DHT22;4771;48.726;9.006;2023-07-16T12:15:59;23.90;99.10
9466;DHT22;4771;48.726;9.006;2023-07-16T12:18:26;23.90;94.80
9466;DHT22;4771;48.726;9.006;2023-07-16T12:20:55;23.90;93.20
9466;DHT22;4771;48.726;9.006;2023-07-16T12:23:23;23.90;96.80
9466;DHT22;4771;48.726;9.006;2023-07-16T12:25:50;23.90;95.80
9466;DHT22;4771;48.726;9.006;2023-07-16T12:28:17;23.90;95.50
9466;DHT22;4771;48.726;9.006;2023-07-16T12:30:44;24.00;95.90
9466;DHT22;4771;48.726;9.006;2023-07-16T12:33:11;24.00;94.10
9466;DHT22;4771;48.726;9.006;2023-07-16T12:35:38;24.10;91.30
9466;DHT22;4771;48.726;9.006;2023-07-16T12:38:05;24.00;91.30
9466;DHT22;4771;48.726;9.006;2023-07-16T12:40:33;24.00;92.70
9466;DHT22;4771;48.726;9.006;2023-07-16T12:43:05;24.00;93.00
9466;DHT22;4771;48.726;9.006;2023-07-16T12:45:32;24.00;94.90
9466;DHT22;4771;48.726;9.006;2023-07-16T12:47:59;23.90;94.80
9466;DHT22;4771;48.726;9.006;2023-07-16T12:50:26;23.80;93.00
9466;DHT22;4771;48.726;9.006;2023-07-16T12:52:54;23.90;93.40
9466;DHT22;4771;48.726;9.006;2023-07-16T12:55:21;23.90;93.20
9466;DHT22;4771;48.726;9.006;2023-07-16T12:57:50;24.00;91.90
9466;DHT22;4771;48.726;9.006;2023-07-16T13:00:17;24.10;93.00
9466;DHT22;4771;48.726;9.006;2023-07-16T13:02:46;24.20;92.20
9466;DHT22;4771;48.726;9.006;2023-07-16T13:05:13;24.30;92.70
9466;DHT22;4771;48.726;9.006;2023-07-16T13:07:39;24.30;91.20
9466;DHT22;4771;48.726;9.006;2023-07-16T13:10:08;24.30;90.60
9466;DHT22;4771;48.726;9.006;2023-07-16T13:12:35;24.30;92.60
9466;DHT22;4771;48.726;9.006;2023-07-16T13:15:04;24.30;92.10
9466;DHT22;4771;48.726;9.006;2023-07-16T13:17:31;24.30;92.10
9466;DHT22;4771;48.726;9.006;2023-07-16T13:19:57;24.40;93.00
9466;DHT22;4771;48.726;9.006;2023-07-16T13:22:24;24.40;75.70
9466;DHT22;4771;48.726;9.006;2023-07-16T13:24:51;24.40;80.20
9466;DHT22;4771;48.726;9.006;2023-07-16T13:27:22;24.40;91.00
9466;DHT22;4771;48.726;9.006;2023-07-16T13:29:49;24.50;83.80
9466;DHT22;4771;48.726;9.006;2023-07-16T13:32:17;24.40;78.90
9466;DHT22;4771;48.726;9.006;2023-07-16T13:34:44;24.40;87.00
9466;DHT22;4771;48.726;9.006;2023-07-16T13:37:11;24.50;88.40
9466;DHT22;4771;48.726;9.006;2023-07-16T13:39:38;24.50;86.70
9466;DHT22;4771;48.726;9.006;2023-07-16T13:42:05;24.60;79.80
9466;DHT22;4771;48.726;9.006;2023-07-16T13:44:32;24.60;81.70
9466;DHT22;4771;48.726;9.006;2023-07-16T13:46:59;24.70;83.80
9466;DHT22;4771;48.726;9.006;2023-07-16T13:49:28;24.80;78.80
9466;DHT22;4771;48.726;9.006;2023-07-16T13:51:54;24.80;78.20
9466;DHT22;4771;48.726;9.006;2023-07-16T13:54:21;24.80;82.60
9466;DHT22;4771;48.726;9.006;2023-07-16T13:56:48;24.80;79.30
9466;DHT22;4771;48.726;9.006;2023-07-16T13:59:16;24.80;76.50
9466;DHT22;4771;48.726;9.006;2023-07-16T14:01:42;24.80;84.50
9466;DHT22;4771;48.726;9.006;2023-07-16T14:04:09;24.80;84.20
9466;DHT22;4771;48.726;9.006;2023-07-16T14:06:37;24.80;79.70
9466;DHT22;4771;48.726;9.006;2023-07-16T14:09:05;24.80;77.60
9466;DHT22;4771;48.726;9.006;2023-07-16T14:11:31;24.80;79.30
9466;DHT22;4771;48.726;9.006;2023-07-16T14:13:58;24.70;77.40
9466;DHT22;4771;48.726;9.006;2023-07-16T14:16:25;24.70;82.00
9466;DHT22;4771;48.726;9.006;2023-07-16T14:18:53;24.60;76.60
9466;DHT22;4771;48.726;9.006;2023-07-16T14:21:20;24.60;76.70
9466;DHT22;4771;48.726;9.006;2023-07-16T14:23:48;24.60;77.30
9466;DHT22;4771;48.726;9.006;2023-07-16T14:26:15;24.50;74.10
9466;DHT22;4771;48.726;9.006;2023-07-16T14:28:42;24.40;76.40
9466;DHT22;4771;48.726;9.006;2023-07-16T14:31:09;24.40;80.30
9466;DHT22;4771;48.726;9.006;2023-07-16T14:33:36;24.40;84.40
9466;DHT22;4771;48.726;9.006;2023-07-16T14:36:04;24.40;84.80
9466;DHT22;4771;48.726;9.006;2023-07-16T14:38:31;24.40;79.20
9466;DHT22;4771;48.726;9.006;2023-07-16T14:41:00;24.40;77.40
9466;DHT22;4771;48.726;9.006;2023-07-16T14:43:26;24.30;78.40
9466;DHT22;4771;48.726;9.006;2023-07-16T14:45:53;24.30;80.10
9466;DHT22;4771;48.726;9.006;2023-07-16T14:48:20;24.30;80.80
9466;DHT22;4771;48.726;9.006;2023-07-16T14:50:48;24.30;84.20
9466;DHT22;4771;48.726;9.006;2023-07-16T14:53:16;24.30;83.70
9466;DHT22;4771;48.726;9.006;2023-07-16T14:55:47;24.20;85.20
9466;DHT22;4771;48.726;9.006;2023-07-16T14:58:17;24.20;82.10
9466;DHT22;4771;48.726;9.006;2023-07-16T15:00:44;24.20;83.30
9466;DHT22;4771;48.726;9.006;2023-07-16T15:03:11;24.20;83.10
9466;DHT22;4771;48.726;9.006;2023-07-16T15:05:38;24.20;76.20
9466;DHT22;4771;48.726;9.006;2023-07-16T15:08:05;24.10;79.50
9466;DHT22;4771;48.726;9.006;2023-07-16T15:10:32;24.10;79.30
9466;DHT22;4771;48.726;9.006;2023-07-16T15:12:59;24.10;88.10
9466;DHT22;4771;48.726;9.006;2023-07-16T15:15:27;24.00;77.30
9466;DHT22;4771;48.726;9.006;2023-07-16T15:17:54;24.00;83.50
9466;DHT22;4771;48.726;9.006;2023-07-16T15:20:21;24.00;80.60
9466;DHT22;4771;48.726;9.006;2023-07-16T15:22:49;24.10;81.70
9466;DHT22;4771;48.726;9.006;2023-07-16T15:25:16;24.10;78.20
9466;DHT22;4771;48.726;9.006;2023-07-16T15:27:43;24.20;78.10
9466;DHT22;4771;48.726;9.006;2023-07-16T15:30:10;24.20;73.40
9466;DHT22;4771;48.726;9.006;2023-07-16T15:32:40;24.30;81.50
9466;DHT22;4771;48.726;9.006;2023-07-16T15:35:07;24.30;75.50
9466;DHT22;4771;48.726;9.006;2023-07-16T15:37:34;24.10;74.50
9466;DHT22;4771;48.726;9.006;2023-07-16T15:40:12;24.10;81.70
9466;DHT22;4771;48.726;9.006;2023-07-16T15:42:39;24.10;85.80
9466;DHT22;4771;48.726;9.006;2023-07-16T15:45:09;24.10;85.10
9466;DHT22;4771;48.726;9.006;2023-07-16T15:47:39;24.10;85.80
9466;DHT22;4771;48.726;9.006;2023-07-16T15:50:07;24.10;86.20
9466;DHT22;4771;48.726;9.006;2023-07-16T15:52:34;24.10;81.70
9466;DHT22;4771;48.726;9.006;2023-07-16T15:55:01;24.10;87.50
9466;DHT22;4771;48.726;9.006;2023-07-16T15:57:27;24.20;91.20
9466;DHT22;4771;48.726;9.006;2023-07-16T15:59:54;24.20;92.40
9466;DHT22;4771;48.726;9.006;2023-07-16T16:02:21;24.20;92.30
9466;DHT22;4771;48.726;9.006;2023-07-16T16:04:50;24.10;92.70
9466;DHT22;4771;48.726;9.006;2023-07-16T16:07:17;24.10;94.90